createdAt,value
2022-09-20T00:01:35.575Z,1.50
2022-09-20T00:04:06.642Z,1.50
2022-09-20T00:06:35.925Z,1.73
2022-09-20T00:09:04.943Z,1.50
2022-09-20T00:11:34.315Z,1.80
2022-09-20T00:14:05.920Z,1.70
2022-09-20T00:16:35.854Z,1.80
2022-09-20T00:19:05.232Z,1.90
2022-09-20T00:21:36.285Z,2.30
2022-09-20T00:24:05.828Z,2.00
2022-09-20T00:26:34.396Z,2.00
2022-09-20T00:29:04.406Z,1.60
2022-09-20T00:31:33.084Z,1.80
2022-09-20T00:34:19.485Z,1.70
2022-09-20T00:36:48.046Z,1.30
2022-09-20T00:39:17.586Z,1.50
2022-09-20T00:41:46.245Z,1.40
2022-09-20T00:44:33.288Z,1.37
2022-09-20T00:47:04.028Z,1.50
2022-09-20T00:49:32.667Z,1.70
2022-09-20T00:52:02.252Z,1.30
2022-09-20T00:54:32.276Z,1.37
2022-09-20T00:57:00.969Z,1.73
2022-09-20T00:59:31.728Z,1.50
2022-09-20T01:02:02.912Z,1.57
2022-09-20T01:04:33.006Z,1.60
2022-09-20T01:07:03.800Z,2.07
2022-09-20T01:09:32.337Z,1.50
2022-09-20T01:12:03.438Z,1.50
2022-09-20T01:14:32.072Z,1.40
2022-09-20T01:17:03.872Z,1.40
2022-09-20T01:19:36.405Z,1.20
2022-09-20T01:22:06.804Z,1.70
2022-09-20T01:24:39.238Z,1.40
2022-09-20T01:27:12.745Z,1.60
2022-09-20T01:29:54.003Z,1.50
2022-09-20T01:32:25.283Z,1.70
2022-09-20T01:34:55.937Z,1.40
2022-09-20T01:37:26.505Z,1.20
2022-09-20T01:39:58.544Z,1.60
2022-09-20T01:42:33.579Z,1.40
2022-09-20T01:45:07.800Z,1.60
2022-09-20T01:47:40.337Z,1.40
2022-09-20T01:50:12.251Z,1.40
2022-09-20T01:52:59.260Z,1.40
2022-09-20T01:55:37.646Z,1.30
2022-09-20T01:58:21.077Z,1.07
2022-09-20T02:00:58.887Z,1.27
2022-09-20T02:03:54.288Z,1.30
2022-09-20T02:06:29.153Z,1.10
2022-09-20T02:09:15.948Z,1.00
2022-09-20T02:11:51.628Z,1.20
2022-09-20T02:14:32.527Z,1.33
2022-09-20T02:17:08.019Z,1.30
2022-09-20T02:19:48.541Z,1.23
2022-09-20T02:22:21.176Z,1.30
2022-09-20T02:24:55.019Z,1.50
2022-09-20T02:27:25.740Z,1.27
2022-09-20T02:30:01.829Z,1.40
2022-09-20T02:32:37.681Z,1.20
2022-09-20T02:35:21.692Z,1.40
2022-09-20T02:37:56.728Z,1.27
2022-09-20T02:40:42.429Z,1.20
2022-09-20T02:43:16.205Z,1.40
2022-09-20T02:45:49.737Z,1.57
2022-09-20T02:48:22.759Z,1.83
2022-09-20T02:50:54.741Z,1.20
2022-09-20T02:53:30.983Z,1.27
2022-09-20T02:56:03.213Z,1.57
2022-09-20T02:58:38.023Z,1.53
2022-09-20T03:01:09.555Z,1.70
2022-09-20T03:03:45.201Z,2.13
2022-09-20T03:06:18.585Z,3.13
2022-09-20T03:08:51.537Z,3.53
2022-09-20T03:11:25.279Z,3.70
2022-09-20T03:14:02.543Z,3.03
2022-09-20T03:16:36.525Z,3.63
2022-09-20T03:19:13.989Z,3.40
2022-09-20T03:21:49.328Z,4.00
2022-09-20T03:24:22.032Z,3.70
2022-09-20T03:26:55.011Z,3.37
2022-09-20T03:29:28.894Z,4.23
2022-09-20T03:32:02.948Z,4.33
2022-09-20T03:34:39.159Z,4.10
2022-09-20T03:37:13.053Z,3.93
2022-09-20T03:39:46.592Z,4.80
2022-09-20T03:42:17.437Z,4.23
2022-09-20T03:44:56.042Z,4.00
2022-09-20T03:47:31.786Z,3.93
2022-09-20T03:50:09.208Z,4.80
2022-09-20T03:52:45.426Z,4.20
2022-09-20T03:55:26.475Z,4.30
2022-09-20T03:58:00.972Z,3.60
2022-09-20T04:00:38.469Z,3.33
2022-09-20T04:03:15.783Z,3.73
2022-09-20T04:05:52.557Z,3.63
2022-09-20T04:08:27.432Z,3.77
2022-09-20T04:11:00.609Z,3.30
2022-09-20T04:13:36.635Z,4.30
2022-09-20T04:16:24.307Z,4.17
2022-09-20T04:18:56.973Z,4.63
2022-09-20T04:21:30.434Z,3.97
2022-09-20T04:24:03.140Z,4.10
2022-09-20T04:26:32.792Z,5.60
2022-09-20T04:29:08.647Z,5.13
2022-09-20T04:31:42.881Z,4.87
2022-09-20T04:34:15.359Z,5.93
2022-09-20T04:36:57.189Z,6.63
2022-09-20T04:39:30.573Z,5.80
2022-09-20T04:42:16.950Z,6.23
2022-09-20T04:45:08.523Z,6.97
2022-09-20T04:47:51.393Z,7.13
2022-09-20T04:50:25.392Z,7.73
2022-09-20T04:53:09.039Z,8.50
2022-09-20T04:56:01.845Z,8.60
2022-09-20T04:58:42.136Z,7.37
2022-09-20T05:01:37.756Z,8.57
2022-09-20T05:04:24.967Z,8.10
2022-09-20T05:07:07.204Z,7.70
2022-09-20T05:09:49.555Z,8.27
2022-09-20T05:12:28.641Z,7.27
2022-09-20T05:15:10.423Z,7.73
2022-09-20T05:17:45.698Z,8.60
2022-09-20T05:20:25.184Z,8.10
2022-09-20T05:23:03.971Z,9.37
2022-09-20T05:25:44.948Z,8.87
2022-09-20T05:28:16.773Z,7.17
2022-09-20T05:30:48.601Z,8.10
2022-09-20T05:33:21.217Z,7.87
2022-09-20T05:35:54.609Z,8.07
2022-09-20T05:41:10.529Z,7.67
2022-09-20T05:43:44.847Z,6.83
2022-09-20T05:46:18.903Z,7.23
2022-09-20T05:48:54.772Z,6.70
2022-09-20T05:51:30.888Z,48.57
2022-09-20T05:54:09.308Z,20.87
2022-09-20T05:56:44.556Z,14.23
2022-09-20T05:59:21.986Z,9.77
2022-09-20T06:01:59.230Z,6.27
2022-09-20T06:04:31.412Z,5.57
2022-09-20T06:07:05.496Z,5.07
2022-09-20T06:09:42.963Z,4.97
2022-09-20T06:12:23.159Z,5.33
2022-09-20T06:14:54.753Z,5.00
2022-09-20T06:17:27.486Z,4.03
2022-09-20T06:20:02.265Z,5.33
2022-09-20T06:22:32.877Z,4.80
2022-09-20T06:25:03.239Z,4.53
2022-09-20T06:27:34.232Z,4.80
2022-09-20T06:30:05.703Z,4.53
2022-09-20T06:32:36.425Z,4.80
2022-09-20T06:35:07.010Z,4.30
2022-09-20T06:38:00.789Z,4.10
2022-09-20T06:40:58.953Z,4.40
2022-09-20T06:43:27.795Z,4.00
2022-09-20T06:45:56.324Z,3.60
2022-09-20T06:48:26.311Z,3.97
2022-09-20T06:50:54.860Z,3.83
2022-09-20T06:53:26.755Z,3.77
2022-09-20T06:55:55.319Z,4.10
2022-09-20T06:58:23.884Z,3.90
2022-09-20T07:00:53.339Z,4.23
2022-09-20T07:03:21.913Z,4.10
2022-09-20T07:05:51.860Z,5.10
2022-09-20T07:08:20.441Z,5.17
2022-09-20T07:10:49.001Z,6.27
2022-09-20T07:13:19.773Z,5.80
2022-09-20T07:15:48.597Z,6.67
2022-09-20T07:18:17.166Z,7.20
2022-09-20T07:20:45.716Z,6.33
2022-09-20T07:23:15.877Z,6.00
2022-09-20T07:25:44.451Z,7.17
2022-09-20T07:28:13.004Z,5.90
2022-09-20T07:30:41.678Z,6.50
2022-09-20T07:33:11.878Z,13.80
2022-09-20T07:35:41.535Z,16.50
2022-09-20T07:38:10.277Z,27.20
2022-09-20T07:40:40.328Z,18.87
2022-09-20T07:43:08.860Z,8.73
2022-09-20T07:45:39.561Z,7.93
2022-09-20T07:48:09.532Z,7.30
2022-09-20T07:50:38.095Z,6.60
2022-09-20T07:53:06.636Z,6.57
2022-09-20T07:55:35.610Z,6.40
2022-09-20T07:58:05.553Z,6.83
2022-09-20T08:00:34.073Z,5.93
2022-09-20T08:03:03.106Z,5.57
2022-09-20T08:05:31.795Z,6.23
2022-09-20T08:08:01.012Z,5.97
2022-09-20T08:10:29.529Z,5.07
2022-09-20T08:15:48.755Z,4.40
2022-09-20T08:18:17.478Z,4.57
2022-09-20T08:20:46.000Z,4.50
2022-09-20T08:23:23.437Z,4.60
2022-09-20T08:25:52.651Z,4.13
2022-09-20T08:28:21.191Z,4.20
2022-09-20T08:30:51.076Z,4.40
2022-09-20T08:33:19.597Z,4.20
2022-09-20T08:35:50.149Z,3.77
2022-09-20T08:41:08.880Z,3.83
2022-09-20T08:43:39.741Z,3.17
2022-09-20T08:46:13.791Z,2.60
2022-09-20T08:48:42.673Z,3.00
2022-09-20T08:51:12.089Z,2.83
2022-09-20T08:53:49.127Z,3.07
2022-09-20T08:56:18.087Z,2.40
2022-09-20T08:58:47.116Z,3.47
2022-09-20T09:01:20.094Z,3.33
2022-09-20T09:03:48.780Z,3.60
2022-09-20T09:06:19.039Z,3.17
2022-09-20T09:08:51.959Z,3.33
2022-09-20T09:11:21.346Z,2.80
2022-09-20T09:13:53.127Z,2.50
2022-09-20T09:16:28.854Z,2.33
2022-09-20T09:19:33.205Z,1.90
2022-09-20T09:22:03.000Z,1.80
2022-09-20T09:24:32.094Z,1.73
2022-09-20T09:27:07.667Z,1.80
2022-09-20T09:29:36.285Z,34.07
2022-09-20T09:32:21.014Z,5.80
2022-09-20T09:34:49.605Z,13.53
2022-09-20T09:37:28.676Z,12.20
2022-09-20T09:40:11.597Z,2.20
2022-09-20T09:42:50.050Z,1.87
2022-09-20T09:45:29.299Z,1.90
2022-09-20T09:48:00.660Z,2.20
2022-09-20T09:50:31.372Z,1.90
2022-09-20T09:53:04.525Z,1.80
2022-09-20T09:55:41.257Z,1.70
2022-09-20T09:58:13.537Z,1.90
2022-09-20T10:00:46.450Z,2.10
2022-09-20T10:03:22.269Z,2.00
2022-09-20T10:05:59.723Z,1.67
2022-09-20T10:08:33.204Z,1.70
2022-09-20T10:11:06.969Z,1.80
2022-09-20T10:13:40.806Z,1.43
2022-09-20T10:16:14.084Z,1.33
2022-09-20T10:18:48.120Z,1.47
2022-09-20T10:21:23.824Z,1.40
2022-09-20T10:24:04.339Z,1.40
2022-09-20T10:26:40.644Z,1.40
2022-09-20T10:29:11.427Z,1.17
2022-09-20T10:31:46.675Z,1.30
2022-09-20T10:34:25.123Z,1.00
2022-09-20T10:36:55.713Z,1.10
2022-09-20T10:39:27.125Z,1.40
2022-09-20T10:42:19.319Z,1.00
2022-09-20T10:44:55.912Z,1.10
2022-09-20T10:47:28.845Z,1.60
2022-09-20T10:50:03.034Z,1.20
2022-09-20T10:52:43.332Z,1.10
2022-09-20T10:55:22.079Z,1.43
2022-09-20T10:58:00.176Z,1.00
2022-09-20T11:00:36.880Z,1.27
2022-09-20T11:03:12.550Z,1.10
2022-09-20T11:05:45.372Z,1.10
2022-09-20T11:08:15.617Z,1.20
2022-09-20T11:10:46.094Z,1.20
2022-09-20T11:13:21.224Z,1.10
2022-09-20T11:15:52.529Z,1.13
2022-09-20T11:18:24.078Z,1.27
2022-09-20T11:20:57.439Z,0.93
2022-09-20T11:23:29.971Z,0.90
2022-09-20T11:26:00.512Z,1.00
2022-09-20T11:28:30.415Z,0.90
2022-09-20T11:31:03.909Z,1.10
2022-09-20T11:33:38.061Z,0.83
2022-09-20T11:36:12.382Z,1.10
2022-09-20T11:38:43.724Z,1.00
2022-09-20T11:41:15.098Z,1.10
2022-09-20T11:43:45.877Z,0.90
2022-09-20T11:46:15.712Z,0.90
2022-09-20T11:48:45.760Z,0.90
2022-09-20T11:51:22.406Z,0.77
2022-09-20T11:53:56.327Z,1.20
2022-09-20T11:56:26.582Z,0.97
2022-09-20T11:58:56.227Z,0.90
2022-09-20T12:01:28.685Z,1.10
2022-09-20T12:04:20.634Z,1.00
2022-09-20T12:06:48.785Z,0.97
2022-09-20T12:09:25.076Z,1.00
2022-09-20T12:11:53.932Z,0.90
2022-09-20T12:14:25.564Z,0.90
2022-09-20T12:16:54.202Z,0.80
2022-09-20T12:19:40.021Z,0.73
2022-09-20T12:22:29.116Z,1.00
2022-09-20T12:25:16.129Z,0.90
2022-09-20T12:27:59.903Z,1.13
2022-09-20T12:30:30.000Z,1.20
2022-09-20T12:33:01.311Z,0.80
2022-09-20T12:36:05.749Z,1.10
2022-09-20T12:38:48.119Z,0.90
2022-09-20T12:41:27.553Z,1.00
2022-09-20T12:43:59.205Z,1.00
2022-09-20T12:46:38.760Z,1.00
2022-09-20T12:49:36.688Z,1.30
2022-09-20T12:52:23.456Z,1.20
2022-09-20T12:54:58.116Z,1.10
2022-09-20T12:57:32.085Z,0.80
2022-09-20T13:00:01.728Z,1.10
2022-09-20T13:02:43.491Z,1.00
2022-09-20T13:05:32.020Z,0.83
2022-09-20T13:08:03.749Z,0.90
2022-09-20T13:10:35.951Z,1.07
2022-09-20T13:13:08.505Z,0.80
2022-09-20T13:15:37.677Z,1.17
2022-09-20T13:18:07.200Z,1.13
2022-09-20T13:20:36.656Z,1.07
2022-09-20T13:23:06.219Z,1.00
2022-09-20T13:25:36.175Z,0.83
2022-09-20T13:28:09.647Z,1.00
2022-09-20T13:30:41.639Z,0.90
2022-09-20T13:33:17.541Z,1.13
2022-09-20T13:35:46.958Z,1.40
2022-09-20T13:38:23.163Z,1.00
2022-09-20T13:40:54.085Z,1.00
2022-09-20T13:43:29.807Z,1.00
2022-09-20T13:45:59.347Z,1.30
2022-09-20T13:48:28.436Z,1.00
2022-09-20T13:50:57.542Z,1.10
2022-09-20T13:53:41.085Z,1.00
2022-09-20T13:56:13.240Z,1.10
2022-09-20T13:58:42.530Z,0.90
2022-09-20T14:01:22.826Z,1.10
2022-09-20T14:03:51.527Z,1.00
2022-09-20T14:06:21.739Z,1.10
2022-09-20T14:08:51.636Z,1.40
2022-09-20T14:11:22.823Z,1.00
2022-09-20T14:13:52.290Z,1.20
2022-09-20T14:16:21.909Z,0.93
2022-09-20T14:18:51.108Z,1.77
2022-09-20T14:21:22.561Z,1.10
2022-09-20T14:23:51.932Z,1.10
2022-09-20T14:26:27.696Z,0.90
2022-09-20T14:28:56.712Z,1.20
2022-09-20T14:31:26.913Z,1.30
2022-09-20T14:33:57.750Z,1.07
2022-09-20T14:36:28.624Z,1.10
2022-09-20T14:38:59.395Z,1.23
2022-09-20T14:41:33.078Z,1.07
2022-09-20T14:44:03.332Z,1.07
2022-09-20T14:46:35.325Z,1.23
2022-09-20T14:49:23.100Z,1.07
2022-09-20T14:51:52.031Z,1.27
2022-09-20T14:54:26.857Z,1.00
2022-09-20T14:56:57.686Z,1.17
2022-09-20T14:59:27.156Z,1.10
2022-09-20T15:02:05.993Z,1.20
2022-09-20T15:04:35.687Z,1.37
2022-09-20T15:07:06.187Z,0.90
2022-09-20T15:09:35.744Z,0.97
2022-09-20T15:12:07.046Z,1.10
2022-09-20T15:14:37.817Z,0.70
2022-09-20T15:17:06.858Z,0.83
2022-09-20T15:19:35.381Z,1.00
2022-09-20T15:22:04.130Z,1.00
2022-09-20T15:24:32.792Z,0.90
2022-09-20T15:27:01.429Z,1.53
2022-09-20T15:29:31.526Z,1.03
2022-09-20T15:32:00.094Z,0.90
2022-09-20T15:34:28.686Z,1.00
2022-09-20T15:36:57.190Z,0.90
2022-09-20T15:39:25.931Z,0.90
2022-09-20T15:41:54.617Z,1.00
2022-09-20T15:44:23.164Z,0.97
2022-09-20T15:46:53.570Z,1.30
2022-09-20T15:49:22.678Z,0.90
2022-09-20T15:51:52.556Z,1.00
2022-09-20T15:54:21.167Z,1.27
2022-09-20T15:56:51.775Z,1.07
2022-09-20T15:59:23.076Z,0.93
2022-09-20T16:01:52.991Z,1.07
2022-09-20T16:04:22.016Z,1.30
2022-09-20T16:06:51.179Z,1.20
2022-09-20T16:09:20.120Z,1.23
2022-09-20T16:11:48.972Z,1.00
2022-09-20T16:14:17.502Z,1.30
2022-09-20T16:16:46.101Z,1.03
2022-09-20T16:19:19.907Z,1.10
2022-09-20T16:21:53.573Z,1.27
2022-09-20T16:24:27.042Z,1.20
2022-09-20T16:26:55.712Z,1.47
2022-09-20T16:29:25.638Z,1.10
2022-09-20T16:31:55.046Z,1.37
2022-09-20T16:34:29.526Z,1.40
2022-09-20T16:36:59.541Z,1.00
2022-09-20T16:39:28.588Z,1.20
2022-09-20T16:41:58.091Z,1.53
2022-09-20T16:44:26.745Z,0.87
2022-09-20T16:46:55.324Z,1.00
2022-09-20T16:49:26.365Z,0.93
2022-09-20T16:51:55.018Z,1.30
2022-09-20T16:54:27.382Z,1.00
2022-09-20T16:56:58.323Z,1.30
2022-09-20T16:59:26.915Z,1.30
2022-09-20T17:01:55.449Z,1.10
2022-09-20T17:04:25.382Z,1.23
2022-09-20T17:06:54.212Z,1.00
2022-09-20T17:09:22.757Z,0.83
2022-09-20T17:11:51.879Z,1.00
2022-09-20T17:14:21.835Z,1.10
2022-09-20T17:16:51.165Z,1.30
2022-09-20T17:19:20.597Z,1.03
2022-09-20T17:21:51.447Z,1.10
2022-09-20T17:24:20.625Z,1.17
2022-09-20T17:26:50.613Z,0.77
2022-09-20T17:29:20.051Z,1.00
2022-09-20T17:31:54.914Z,1.17
2022-09-20T17:34:25.201Z,1.10
2022-09-20T17:36:55.433Z,1.00
2022-09-20T17:39:24.095Z,1.00
2022-09-20T17:41:52.731Z,0.90
2022-09-20T17:44:21.269Z,0.90
2022-09-20T17:46:50.902Z,1.10
2022-09-20T17:49:20.244Z,0.70
2022-09-20T17:51:49.615Z,0.87
2022-09-20T17:54:19.673Z,0.63
2022-09-20T17:56:49.189Z,0.90
2022-09-20T17:59:18.498Z,0.90
2022-09-20T18:01:47.805Z,0.90
2022-09-20T18:04:16.827Z,0.83
2022-09-20T18:06:47.028Z,1.10
2022-09-20T18:09:16.700Z,1.10
2022-09-20T18:11:49.002Z,1.57
2022-09-20T18:14:18.209Z,3.10
2022-09-20T18:16:47.155Z,3.13
2022-09-20T18:19:16.155Z,3.23
2022-09-20T18:21:44.960Z,2.90
2022-09-20T18:24:13.842Z,2.50
2022-09-20T18:26:42.424Z,1.77
2022-09-20T18:29:13.000Z,1.80
2022-09-20T18:31:43.095Z,1.47
2022-09-20T18:34:15.187Z,1.43
2022-09-20T18:36:43.916Z,1.20
2022-09-20T18:39:13.015Z,1.30
2022-09-20T18:41:43.028Z,1.27
2022-09-20T18:44:14.534Z,1.17
2022-09-20T18:46:43.134Z,1.13
2022-09-20T18:49:13.345Z,1.10
2022-09-20T18:51:42.062Z,1.03
2022-09-20T18:54:11.037Z,1.57
2022-09-20T18:56:40.332Z,1.80
2022-09-20T18:59:09.959Z,2.00
2022-09-20T19:02:08.580Z,1.63
2022-09-20T19:04:46.207Z,1.97
2022-09-20T19:07:17.848Z,2.10
2022-09-20T19:09:51.217Z,1.97
2022-09-20T19:12:22.477Z,2.03
2022-09-20T19:15:06.555Z,2.10
2022-09-20T19:17:42.635Z,1.83
2022-09-20T19:20:16.315Z,2.30
2022-09-20T19:22:51.028Z,2.47
2022-09-20T19:25:22.272Z,2.40
2022-09-20T19:27:51.532Z,2.70
2022-09-20T19:30:20.712Z,2.10
2022-09-20T19:32:49.605Z,2.17
2022-09-20T19:35:20.900Z,2.27
2022-09-20T19:37:59.811Z,2.50
2022-09-20T19:40:32.840Z,2.30
2022-09-20T19:43:08.912Z,3.10
2022-09-20T19:45:41.121Z,3.30
2022-09-20T19:48:13.087Z,3.10
2022-09-20T19:50:45.215Z,3.60
2022-09-20T19:53:14.603Z,3.70
2022-09-20T19:55:46.993Z,3.73
2022-09-20T19:58:16.312Z,5.53
2022-09-20T20:00:45.491Z,6.90
2022-09-20T20:03:14.524Z,6.30
2022-09-20T20:05:48.017Z,6.23
2022-09-20T20:08:19.170Z,5.90
2022-09-20T20:10:53.169Z,5.07
2022-09-20T20:13:43.696Z,4.83
2022-09-20T20:16:14.849Z,4.70
2022-09-20T20:18:51.141Z,4.70
2022-09-20T20:21:24.620Z,4.43
2022-09-20T20:24:09.232Z,4.77
2022-09-20T20:26:37.763Z,4.50
2022-09-20T20:29:06.377Z,4.53
2022-09-20T20:31:34.966Z,3.93
2022-09-20T20:34:03.576Z,3.50
2022-09-20T20:36:33.448Z,3.20
2022-09-20T20:39:02.664Z,3.00
2022-09-20T20:41:31.846Z,2.40
2022-09-20T20:44:00.417Z,2.33
2022-09-20T20:46:31.886Z,2.17
2022-09-20T20:49:01.537Z,2.13
2022-09-20T20:51:33.279Z,1.90
2022-09-20T20:54:04.820Z,1.90
2022-09-20T20:56:33.529Z,1.70
2022-09-20T20:59:04.487Z,1.90
2022-09-20T21:01:34.116Z,1.60
2022-09-20T21:04:03.514Z,1.80
2022-09-20T21:06:32.983Z,1.70
2022-09-20T21:09:03.351Z,1.83
2022-09-20T21:11:33.303Z,2.10
2022-09-20T21:14:02.678Z,2.10
2022-09-20T21:16:32.378Z,2.30
2022-09-20T21:19:01.000Z,2.50
2022-09-20T21:21:30.807Z,2.60
2022-09-20T21:24:00.374Z,2.37
2022-09-20T21:26:31.960Z,2.00
2022-09-20T21:29:01.300Z,2.07
2022-09-20T21:31:32.105Z,1.90
2022-09-20T21:34:00.945Z,1.70
2022-09-20T21:36:30.084Z,1.87
2022-09-20T21:38:58.848Z,1.80
2022-09-20T21:41:29.169Z,1.90
2022-09-20T21:43:59.991Z,2.00
2022-09-20T21:46:29.258Z,2.10
2022-09-20T21:48:58.420Z,2.30
2022-09-20T21:51:29.633Z,1.80
2022-09-20T21:53:59.538Z,2.07
2022-09-20T21:56:29.219Z,2.00
2022-09-20T21:58:59.341Z,2.53
2022-09-20T22:01:28.948Z,2.70
2022-09-20T22:04:00.080Z,2.93
2022-09-20T22:06:30.031Z,3.33
2022-09-20T22:08:59.425Z,3.70
2022-09-20T22:11:29.465Z,3.70
2022-09-20T22:13:59.979Z,3.37
2022-09-20T22:16:29.344Z,3.00
2022-09-20T22:18:59.563Z,2.63
2022-09-20T22:21:29.108Z,2.87
2022-09-20T22:23:58.519Z,2.70
2022-09-20T22:26:27.806Z,2.50
2022-09-20T22:28:56.485Z,2.87
2022-09-20T22:31:26.984Z,2.40
2022-09-20T22:33:56.260Z,2.17
2022-09-20T22:36:25.559Z,2.30
2022-09-20T22:38:54.860Z,3.27
2022-09-20T22:41:23.824Z,3.20
2022-09-20T22:43:52.430Z,2.83
2022-09-20T22:46:21.827Z,2.70
2022-09-20T22:48:51.973Z,3.07
2022-09-20T22:51:21.124Z,2.77
2022-09-20T22:53:50.949Z,2.90
2022-09-20T22:56:21.070Z,2.77
2022-09-20T22:58:50.673Z,2.30
2022-09-20T23:01:20.589Z,2.70
2022-09-20T23:03:50.161Z,2.53
2022-09-20T23:06:21.793Z,2.50
2022-09-20T23:08:50.463Z,2.50
2022-09-20T23:11:19.316Z,2.50
2022-09-20T23:13:48.216Z,2.63
2022-09-20T23:16:18.569Z,3.27
2022-09-20T23:18:47.240Z,3.13
2022-09-20T23:21:16.044Z,3.50
2022-09-20T23:23:47.026Z,4.00
2022-09-20T23:26:17.005Z,3.70
2022-09-20T23:28:46.824Z,3.63
2022-09-20T23:31:16.768Z,3.83
2022-09-20T23:33:48.480Z,3.67
2022-09-20T23:36:17.579Z,3.60
2022-09-20T23:38:47.890Z,3.10
2022-09-20T23:41:17.175Z,3.17
2022-09-20T23:43:45.857Z,3.10
2022-09-20T23:46:14.887Z,3.17
2022-09-20T23:48:43.798Z,2.77
2022-09-20T23:51:13.416Z,2.33
2022-09-20T23:53:41.969Z,2.60
2022-09-20T23:56:12.556Z,2.70
2022-09-20T23:58:41.687Z,2.50
